Elk Point, Canada
Current Conditions -  °F | °C
As of 4:00 PM on Wednesday 22 Oct 2014 (Local Time) from CYOD Reporting Station
Few Clouds Few Clouds  
Wind Chill: 61°   Ceiling: Unl
Heat Index: 61°   Visibility: 15mi
Dew Point: 30°   Wind: 10mph
Humidity: 31%   Direction: 120°ESE
Pressure: 29.67"   Gusts: NA
Location:  53.9°N, 110.9°W
Report Text: CYOD 222200Z 12009KT 15SM FEW180 16/M01 A2967 RMK AC1 SLP062
Loading
Personal Weather Stations






























Interactive Weather Map
Tropical Storm Tracking
New forecast layout! Learn more

10-Day Weather Forecast

Advertisements
Track Severe Weather on mobile